createdAt,value
2023-05-01T00:04:01.968Z,66
2023-05-01T00:16:01.783Z,66
2023-05-01T00:28:01.682Z,66
2023-05-01T00:40:01.698Z,66.5
2023-05-01T00:52:01.850Z,66.5
2023-05-01T01:04:01.849Z,66.5
2023-05-01T01:16:01.720Z,66.5
2023-05-01T01:28:01.905Z,66.5
2023-05-01T01:40:01.861Z,66.5
2023-05-01T01:52:01.807Z,66.5
2023-05-01T02:04:01.865Z,66.5
2023-05-01T02:16:01.958Z,66.5
2023-05-01T02:28:01.874Z,66.5
2023-05-01T02:40:01.922Z,66.5
2023-05-01T02:52:01.798Z,66.5
2023-05-01T03:04:02.013Z,66.5
2023-05-01T03:16:01.913Z,67
2023-05-01T03:28:01.891Z,67
2023-05-01T03:40:02.029Z,67
2023-05-01T03:52:02.110Z,67
2023-05-01T04:04:02.169Z,67
2023-05-01T04:16:01.993Z,67
2023-05-01T04:28:02.036Z,67
2023-05-01T04:40:02.035Z,67
2023-05-01T04:52:01.965Z,67
2023-05-01T05:04:02.240Z,67
2023-05-01T05:16:02.136Z,67
2023-05-01T05:28:02.081Z,67
2023-05-01T05:40:01.990Z,67
2023-05-01T05:52:01.977Z,67
2023-05-01T06:04:02.150Z,67
2023-05-01T06:16:02.128Z,66.5
2023-05-01T06:28:02.006Z,67
2023-05-01T06:40:02.314Z,67
2023-05-01T06:52:02.118Z,67
2023-05-01T07:04:02.144Z,67
2023-05-01T07:16:02.099Z,67
2023-05-01T07:28:02.237Z,66.5
2023-05-01T07:40:02.182Z,67
2023-05-01T07:52:02.131Z,66.5
2023-05-01T08:04:02.230Z,65.5
2023-05-01T08:16:02.276Z,64.5
2023-05-01T08:28:02.189Z,64
2023-05-01T08:40:02.185Z,64
2023-05-01T08:52:02.297Z,63.5
2023-05-01T09:04:02.479Z,65
2023-05-01T09:16:02.273Z,65
2023-05-01T09:28:02.204Z,65
2023-05-01T09:40:02.554Z,65.5
2023-05-01T09:52:02.317Z,64.5
2023-05-01T10:04:02.388Z,66.5
2023-05-01T10:16:02.441Z,64.5
2023-05-01T10:28:02.378Z,62
2023-05-01T10:40:02.352Z,61.5
2023-05-01T10:52:02.272Z,60.5
2023-05-01T11:04:02.501Z,60.5
2023-05-01T11:16:02.414Z,60.5
2023-05-01T11:28:02.399Z,60.5
2023-05-01T11:40:02.334Z,60.5
2023-05-01T11:52:02.593Z,59.5
2023-05-01T12:04:02.503Z,59.5
2023-05-01T12:16:02.409Z,59.5
2023-05-01T12:28:02.540Z,60.5
2023-05-01T12:40:02.527Z,60
2023-05-01T12:52:02.458Z,60
2023-05-01T13:04:02.535Z,59.5
2023-05-01T13:16:02.610Z,60
2023-05-01T13:28:02.559Z,60.5
2023-05-01T13:40:02.504Z,60.5
2023-05-01T13:52:02.486Z,60
2023-05-01T14:04:02.518Z,60.5
2023-05-01T14:16:02.624Z,60
2023-05-01T14:28:02.570Z,60.5
2023-05-01T14:40:02.577Z,59
2023-05-01T14:52:02.699Z,58.5
2023-05-01T15:04:03.710Z,59.5
2023-05-01T15:16:02.618Z,57.5
2023-05-01T15:28:02.574Z,58
2023-05-01T15:40:02.728Z,59
2023-05-01T15:52:02.788Z,59.5
2023-05-01T16:04:02.679Z,60
2023-05-01T16:16:02.613Z,62
2023-05-01T16:28:02.739Z,62
2023-05-01T16:40:03.016Z,63
2023-05-01T16:52:04.130Z,64.5
2023-05-01T17:04:02.727Z,65.5
2023-05-01T17:16:02.840Z,65
2023-05-01T17:28:03.012Z,63
2023-05-01T17:40:03.063Z,62.5
2023-05-01T17:52:02.911Z,63.5
2023-05-01T18:04:02.911Z,61.5
2023-05-01T18:16:02.763Z,62.5
2023-05-01T18:28:02.892Z,64.5
2023-05-01T18:40:02.873Z,66
2023-05-01T18:52:02.857Z,64
2023-05-01T19:04:02.995Z,64.5
2023-05-01T19:16:02.963Z,64.5
2023-05-01T19:28:02.937Z,64.5
2023-05-01T19:40:02.817Z,65.5
2023-05-01T19:52:02.914Z,66
2023-05-01T20:04:03.020Z,66
2023-05-01T20:16:03.038Z,66.5
2023-05-01T20:28:02.959Z,66.5
2023-05-01T20:40:02.948Z,66.5
2023-05-01T20:52:02.960Z,66.5
2023-05-01T21:04:03.047Z,66.5
2023-05-01T21:16:02.981Z,66.5
2023-05-01T21:28:02.930Z,66.5
2023-05-01T21:40:03.127Z,66.5
2023-05-01T21:52:03.056Z,66.5
2023-05-01T22:04:03.054Z,66.5
2023-05-01T22:16:03.031Z,66.5
2023-05-01T22:28:03.115Z,66.5
2023-05-01T22:40:03.226Z,67
2023-05-01T22:52:03.055Z,67
2023-05-01T23:04:03.290Z,67
2023-05-01T23:16:03.161Z,67
2023-05-01T23:28:03.148Z,67
2023-05-01T23:40:03.280Z,67
2023-05-01T23:52:03.266Z,67
